createdAt,value
2024-04-25T00:01:55.785Z,6.40
2024-04-25T00:04:43.268Z,6.30
2024-04-25T00:07:29.029Z,6.20
2024-04-25T00:10:14.674Z,6.20
2024-04-25T00:13:00.186Z,6.20
2024-04-25T00:15:46.538Z,6.10
2024-04-25T00:18:32.704Z,6.10
2024-04-25T00:21:18.437Z,6.10
2024-04-25T00:24:04.904Z,6.10
2024-04-25T00:26:51.089Z,6.20
2024-04-25T00:29:36.606Z,6.20
2024-04-25T00:32:22.369Z,6.20
2024-04-25T00:35:07.877Z,6.30
2024-04-25T00:37:53.526Z,6.30
2024-04-25T00:40:39.378Z,6.40
2024-04-25T00:43:30.308Z,6.40
2024-04-25T00:46:19.650Z,6.40
2024-04-25T00:49:07.873Z,6.50
2024-04-25T00:51:53.650Z,6.50
2024-04-25T00:54:39.452Z,6.50
2024-04-25T00:57:29.525Z,6.50
2024-04-25T01:00:15.996Z,6.40
2024-04-25T01:03:03.220Z,6.40
2024-04-25T01:05:49.705Z,6.30
2024-04-25T01:08:35.986Z,6.20
2024-04-25T01:11:21.783Z,6.20
2024-04-25T01:14:07.280Z,6.20
2024-04-25T01:16:52.942Z,6.20
2024-04-25T01:19:41.460Z,6.20
2024-04-25T01:22:35.588Z,6.20
2024-04-25T01:25:22.484Z,6.10
2024-04-25T01:28:08.449Z,6.10
2024-04-25T01:30:54.414Z,6.00
2024-04-25T01:33:41.125Z,6.00
2024-04-25T01:36:26.595Z,5.90
2024-04-25T01:39:12.526Z,5.90
2024-04-25T01:41:58.228Z,5.90
2024-04-25T01:44:44.035Z,5.90
2024-04-25T01:47:29.847Z,5.90
2024-04-25T01:50:15.749Z,5.90
2024-04-25T01:53:01.241Z,5.90
2024-04-25T01:55:46.926Z,6.00
2024-04-25T01:58:32.624Z,6.20
2024-04-25T02:01:18.173Z,6.30
2024-04-25T02:04:04.035Z,6.40
2024-04-25T02:06:49.344Z,6.50
2024-04-25T02:09:37.366Z,6.60
2024-04-25T02:12:23.089Z,6.70
2024-04-25T02:15:08.939Z,6.80
2024-04-25T02:17:54.644Z,6.80
2024-04-25T02:20:58.692Z,6.90
2024-04-25T02:24:02.817Z,6.90
2024-04-25T02:26:48.121Z,6.90
2024-04-25T02:29:34.441Z,6.90
2024-04-25T02:32:20.173Z,6.80
2024-04-25T02:35:06.226Z,6.80
2024-04-25T02:37:52.242Z,6.70
2024-04-25T02:40:43.293Z,6.60
2024-04-25T02:43:28.809Z,6.50
2024-04-25T02:46:14.348Z,6.40
2024-04-25T02:49:00.063Z,6.20
2024-04-25T02:51:45.498Z,6.10
2024-04-25T02:54:31.228Z,6.00
2024-04-25T02:57:16.775Z,5.80
2024-04-25T03:00:02.970Z,5.80
2024-04-25T03:02:52.051Z,5.70
2024-04-25T03:05:44.290Z,5.60
2024-04-25T03:08:30.063Z,5.50
2024-04-25T03:11:15.677Z,5.50
2024-04-25T03:14:01.226Z,5.40
2024-04-25T03:16:49.401Z,5.40
2024-04-25T03:19:34.934Z,5.40
2024-04-25T03:22:20.500Z,5.40
2024-04-25T03:25:08.852Z,5.40
2024-04-25T03:27:55.109Z,5.30
2024-04-25T03:30:40.735Z,5.30
2024-04-25T03:33:26.786Z,5.30
2024-04-25T03:36:12.538Z,5.30
2024-04-25T03:39:01.038Z,5.20
2024-04-25T03:41:48.564Z,5.20
2024-04-25T03:44:34.215Z,5.20
2024-04-25T03:47:21.845Z,5.30
2024-04-25T03:50:07.834Z,5.40
2024-04-25T03:52:53.541Z,5.50
2024-04-25T03:55:39.258Z,5.60
2024-04-25T03:58:24.863Z,5.80
2024-04-25T04:01:10.568Z,5.80
2024-04-25T04:03:56.203Z,5.90
2024-04-25T04:06:41.693Z,5.90
2024-04-25T04:09:27.330Z,6.00
2024-04-25T04:12:12.836Z,6.00
2024-04-25T04:14:58.876Z,6.00
2024-04-25T04:17:45.394Z,6.10
2024-04-25T04:20:31.863Z,6.30
2024-04-25T04:23:17.647Z,6.40
2024-04-25T04:26:03.345Z,6.50
2024-04-25T04:28:48.993Z,6.50
2024-04-25T04:31:37.122Z,6.40
2024-04-25T04:34:22.742Z,6.30
2024-04-25T04:37:08.360Z,6.30
2024-04-25T04:39:54.104Z,6.20
2024-04-25T04:42:39.652Z,6.20
2024-04-25T04:45:25.176Z,6.20
2024-04-25T04:48:16.127Z,6.20
2024-04-25T04:51:08.147Z,6.10
2024-04-25T04:53:53.895Z,6.10
2024-04-25T04:56:40.944Z,6.20
2024-04-25T04:59:26.510Z,6.20
2024-04-25T05:02:12.340Z,6.20
2024-04-25T05:04:57.679Z,6.30
2024-04-25T05:07:43.301Z,6.30
2024-04-25T05:10:30.633Z,6.40
2024-04-25T05:13:16.414Z,6.50
2024-04-25T05:16:02.008Z,6.50
2024-04-25T05:18:47.743Z,6.60
2024-04-25T05:21:33.930Z,6.70
2024-04-25T05:24:19.832Z,6.70
2024-04-25T05:27:05.523Z,6.80
2024-04-25T05:29:50.983Z,6.90
2024-04-25T05:32:36.748Z,7.00
2024-04-25T05:35:22.723Z,7.00
2024-04-25T05:38:08.491Z,7.00
2024-04-25T05:40:54.453Z,7.10
2024-04-25T05:43:40.006Z,7.20
2024-04-25T05:46:27.268Z,7.20
2024-04-25T05:49:12.987Z,7.30
2024-04-25T05:51:58.643Z,7.40
2024-04-25T05:54:44.265Z,7.40
2024-04-25T05:57:30.292Z,7.50
2024-04-25T06:00:16.246Z,7.60
2024-04-25T06:03:04.545Z,7.60
2024-04-25T06:05:50.768Z,7.60
2024-04-25T06:08:38.276Z,7.60
2024-04-25T06:11:27.731Z,7.70
2024-04-25T06:14:13.597Z,7.70
2024-04-25T06:16:59.022Z,7.80
2024-04-25T06:19:48.064Z,7.80
2024-04-25T06:22:34.023Z,7.80
2024-04-25T06:25:19.458Z,7.80
2024-04-25T06:28:05.386Z,8.00
2024-04-25T06:30:50.797Z,8.10
2024-04-25T06:33:36.318Z,8.50
2024-04-25T06:36:23.587Z,8.80
2024-04-25T06:39:10.841Z,9.10
2024-04-25T06:41:59.148Z,9.10
2024-04-25T06:44:50.226Z,9.10
2024-04-25T06:47:39.513Z,9.20
2024-04-25T06:50:25.024Z,9.40
2024-04-25T06:53:11.420Z,9.70
2024-04-25T06:55:58.016Z,9.70
2024-04-25T06:58:43.606Z,9.80
2024-04-25T07:01:32.214Z,9.80
2024-04-25T07:04:18.464Z,9.50
2024-04-25T07:07:05.106Z,9.20
2024-04-25T07:09:50.680Z,8.90
2024-04-25T07:12:37.046Z,8.60
2024-04-25T07:15:25.524Z,8.40
2024-04-25T07:18:12.804Z,8.20
2024-04-25T07:20:58.428Z,8.20
2024-04-25T07:23:44.100Z,8.40
2024-04-25T07:26:29.767Z,8.50
2024-04-25T07:29:15.411Z,8.70
2024-04-25T07:32:02.205Z,8.80
2024-04-25T07:34:48.082Z,8.90
2024-04-25T07:37:34.861Z,9.00
2024-04-25T07:40:20.400Z,8.90
2024-04-25T07:43:06.462Z,8.90
2024-04-25T07:45:51.953Z,8.90
2024-04-25T07:48:37.748Z,9.00
2024-04-25T07:51:23.675Z,9.00
2024-04-25T07:54:10.172Z,9.20
2024-04-25T07:56:55.971Z,9.40
2024-04-25T07:59:42.115Z,9.30
2024-04-25T08:02:28.627Z,9.20
2024-04-25T08:05:14.591Z,9.20
2024-04-25T08:08:00.150Z,9.20
2024-04-25T08:10:49.889Z,9.20
2024-04-25T08:13:35.231Z,9.20
2024-04-25T08:16:20.737Z,9.40
2024-04-25T08:19:06.587Z,9.50
2024-04-25T08:21:52.514Z,9.50
2024-04-25T08:24:38.292Z,9.50
2024-04-25T08:27:25.351Z,9.40
2024-04-25T08:30:11.282Z,9.40
2024-04-25T08:32:57.106Z,9.60
2024-04-25T08:35:43.172Z,9.90
2024-04-25T08:38:30.724Z,10.20
2024-04-25T08:41:17.178Z,10.60
2024-04-25T08:44:06.674Z,11.00
2024-04-25T08:46:52.843Z,11.40
2024-04-25T08:49:38.914Z,11.90
2024-04-25T08:52:27.391Z,12.40
2024-04-25T08:55:15.196Z,12.60
2024-04-25T08:58:02.410Z,12.80
2024-04-25T09:00:48.262Z,13.00
2024-04-25T09:03:33.864Z,13.30
2024-04-25T09:06:19.353Z,13.30
2024-04-25T09:09:05.263Z,13.10
2024-04-25T09:11:54.893Z,12.90
2024-04-25T09:14:40.362Z,12.60
2024-04-25T09:17:26.418Z,12.40
2024-04-25T09:20:12.247Z,12.10
2024-04-25T09:22:59.689Z,11.70
2024-04-25T09:25:45.679Z,11.30
2024-04-25T09:28:34.959Z,10.80
2024-04-25T09:31:22.940Z,10.40
2024-04-25T09:34:11.320Z,10.10
2024-04-25T09:36:57.341Z,9.80
2024-04-25T09:39:43.408Z,9.60
2024-04-25T09:42:36.051Z,9.50
2024-04-25T09:45:25.809Z,9.50
2024-04-25T09:48:17.774Z,9.40
2024-04-25T09:51:18.577Z,9.40
2024-04-25T09:54:11.997Z,9.50
2024-04-25T09:57:07.265Z,9.50
2024-04-25T10:00:08.174Z,9.50
2024-04-25T10:02:54.340Z,9.60
2024-04-25T10:05:40.090Z,9.60
2024-04-25T10:08:27.135Z,9.70
2024-04-25T10:11:15.747Z,9.90
2024-04-25T10:14:01.426Z,10.00
2024-04-25T10:16:48.119Z,10.10
2024-04-25T10:19:39.756Z,10.30
2024-04-25T10:22:26.764Z,10.60
2024-04-25T10:25:20.075Z,10.90
2024-04-25T10:28:06.580Z,11.30
2024-04-25T10:30:55.794Z,11.60
2024-04-25T10:33:41.895Z,12.00
2024-04-25T10:36:32.216Z,12.30
2024-04-25T10:39:21.533Z,12.60
2024-04-25T10:42:15.575Z,12.90
2024-04-25T10:45:01.166Z,12.80
2024-04-25T10:47:46.850Z,12.80
2024-04-25T10:50:33.012Z,12.70
2024-04-25T10:53:23.230Z,12.90
2024-04-25T10:56:08.977Z,13.00
2024-04-25T10:58:58.954Z,13.40
2024-04-25T11:01:46.839Z,13.70
2024-04-25T11:04:37.032Z,13.80
2024-04-25T11:07:23.250Z,13.90
2024-04-25T11:10:12.588Z,14.00
2024-04-25T11:12:59.458Z,14.00
2024-04-25T11:15:54.608Z,13.80
2024-04-25T11:18:40.850Z,13.60
2024-04-25T11:21:29.722Z,13.40
2024-04-25T11:24:20.794Z,13.20
2024-04-25T11:27:07.886Z,13.00
2024-04-25T11:29:54.285Z,13.00
2024-04-25T11:32:40.485Z,13.10
2024-04-25T11:35:28.868Z,12.80
2024-04-25T11:38:17.274Z,12.50
2024-04-25T11:41:03.414Z,12.20
2024-04-25T11:43:49.483Z,12.10
2024-04-25T11:46:35.261Z,12.20
2024-04-25T11:49:21.233Z,12.80
2024-04-25T11:52:06.926Z,13.60
2024-04-25T11:54:53.438Z,14.30
2024-04-25T11:57:39.257Z,15.20
2024-04-25T12:00:24.893Z,15.60
2024-04-25T12:03:10.521Z,16.00
2024-04-25T12:05:56.116Z,16.70
2024-04-25T12:08:45.137Z,17.40
2024-04-25T12:11:31.141Z,17.90
2024-04-25T12:14:16.522Z,18.50
2024-04-25T12:17:02.404Z,19.60
2024-04-25T12:19:51.229Z,19.80
2024-04-25T12:22:36.901Z,19.70
2024-04-25T12:25:22.901Z,19.50
2024-04-25T12:28:08.528Z,19.00
2024-04-25T12:30:53.999Z,18.20
2024-04-25T12:33:41.924Z,18.10
2024-04-25T12:36:27.687Z,18.10
2024-04-25T12:39:14.455Z,17.90
2024-04-25T12:42:01.530Z,17.60
2024-04-25T12:44:51.234Z,17.10
2024-04-25T12:47:37.158Z,16.40
2024-04-25T12:50:22.682Z,15.90
2024-04-25T12:53:14.047Z,15.50
2024-04-25T12:56:00.800Z,15.10
2024-04-25T12:58:46.347Z,14.90
2024-04-25T13:01:32.261Z,14.50
2024-04-25T13:04:18.282Z,14.30
2024-04-25T13:07:07.091Z,14.00
2024-04-25T13:09:54.236Z,13.80
2024-04-25T13:12:39.675Z,13.70
2024-04-25T13:15:27.986Z,13.60
2024-04-25T13:18:19.334Z,13.80
2024-04-25T13:21:05.594Z,14.50
2024-04-25T13:23:51.214Z,15.50
2024-04-25T13:26:36.780Z,16.10
2024-04-25T13:29:22.433Z,16.20
2024-04-25T13:32:08.118Z,16.00
2024-04-25T13:34:55.956Z,15.50
2024-04-25T13:37:41.755Z,15.30
2024-04-25T13:40:28.197Z,15.10
2024-04-25T13:43:15.108Z,15.10
2024-04-25T13:46:01.012Z,15.00
2024-04-25T13:48:46.631Z,14.70
2024-04-25T13:51:34.826Z,14.30
2024-04-25T13:54:20.653Z,13.90
2024-04-25T13:57:07.181Z,13.40
2024-04-25T13:59:53.051Z,13.10
2024-04-25T14:02:38.581Z,12.80
2024-04-25T14:05:24.255Z,12.60
2024-04-25T14:08:10.031Z,12.30
2024-04-25T14:10:55.443Z,12.10
2024-04-25T14:13:44.095Z,12.00
2024-04-25T14:16:29.785Z,11.70
2024-04-25T14:19:15.284Z,11.60
2024-04-25T14:22:00.848Z,11.30
2024-04-25T14:24:48.704Z,11.00
2024-04-25T14:27:53.234Z,10.90
2024-04-25T14:30:39.214Z,10.60
2024-04-25T14:33:25.301Z,10.60
2024-04-25T14:36:12.369Z,10.60
2024-04-25T14:38:58.279Z,10.70
2024-04-25T14:41:44.039Z,10.80
2024-04-25T14:44:29.795Z,10.80
2024-04-25T14:47:15.376Z,10.80
2024-04-25T14:50:00.842Z,10.80
2024-04-25T14:52:46.396Z,10.80
2024-04-25T14:55:31.871Z,10.80
2024-04-25T14:58:18.205Z,10.70
2024-04-25T15:01:04.318Z,10.70
2024-04-25T15:03:50.082Z,10.70
2024-04-25T15:06:42.516Z,10.60
2024-04-25T15:09:28.008Z,10.70
2024-04-25T15:12:13.977Z,10.80
2024-04-25T15:15:08.351Z,10.90
2024-04-25T15:17:58.973Z,10.90
2024-04-25T15:20:44.780Z,10.90
2024-04-25T15:23:30.348Z,10.80
2024-04-25T15:26:16.806Z,10.70
2024-04-25T15:29:03.395Z,10.50
2024-04-25T15:31:49.645Z,10.30
2024-04-25T15:34:35.174Z,10.20
2024-04-25T15:37:20.958Z,10.00
2024-04-25T15:40:07.463Z,9.90
2024-04-25T15:42:52.892Z,9.50
2024-04-25T15:45:38.451Z,9.10
2024-04-25T15:48:24.319Z,8.80
2024-04-25T15:51:11.003Z,8.60
2024-04-25T15:53:56.678Z,8.40
2024-04-25T15:56:47.883Z,8.30
2024-04-25T15:59:33.317Z,8.30
2024-04-25T16:02:22.931Z,8.30
2024-04-25T16:05:08.907Z,8.30
2024-04-25T16:07:54.535Z,8.30
2024-04-25T16:10:40.004Z,8.30
2024-04-25T16:13:25.738Z,8.30
2024-04-25T16:16:11.562Z,8.40
2024-04-25T16:18:57.375Z,8.40
2024-04-25T16:21:45.115Z,8.40
2024-04-25T16:24:36.508Z,8.50
2024-04-25T16:27:25.711Z,8.50
2024-04-25T16:30:12.809Z,8.60
2024-04-25T16:32:58.895Z,8.70
2024-04-25T16:35:45.441Z,8.70
2024-04-25T16:38:31.351Z,8.70
2024-04-25T16:41:19.994Z,8.70
2024-04-25T16:44:05.989Z,8.70
2024-04-25T16:46:51.681Z,8.70
2024-04-25T16:49:40.499Z,8.80
2024-04-25T16:52:26.162Z,8.80
2024-04-25T16:55:20.931Z,8.80
2024-04-25T16:58:08.659Z,8.80
2024-04-25T17:00:54.967Z,8.80
2024-04-25T17:03:44.590Z,8.80
2024-04-25T17:06:31.284Z,8.70
2024-04-25T17:09:17.416Z,8.70
2024-04-25T17:12:03.255Z,8.80
2024-04-25T17:14:50.015Z,8.70
2024-04-25T17:17:36.224Z,8.80
2024-04-25T17:20:21.905Z,8.80
2024-04-25T17:23:07.531Z,8.90
2024-04-25T17:25:53.529Z,9.00
2024-04-25T17:28:39.477Z,9.10
2024-04-25T17:31:30.422Z,9.20
2024-04-25T17:34:19.311Z,9.30
2024-04-25T17:37:06.999Z,9.30
2024-04-25T17:39:52.888Z,9.30
2024-04-25T17:42:38.570Z,9.20
2024-04-25T17:45:24.135Z,9.20
2024-04-25T17:48:11.594Z,9.10
2024-04-25T17:51:00.244Z,9.20
2024-04-25T17:53:45.855Z,9.10
2024-04-25T17:56:31.505Z,9.10
2024-04-25T17:59:17.015Z,9.10
2024-04-25T18:02:02.681Z,9.00
2024-04-25T18:04:48.201Z,9.00
2024-04-25T18:07:37.101Z,9.00
2024-04-25T18:10:24.042Z,9.10
2024-04-25T18:13:09.608Z,9.00
2024-04-25T18:15:55.150Z,9.00
2024-04-25T18:18:40.820Z,8.70
2024-04-25T18:21:32.970Z,8.40
2024-04-25T18:24:23.242Z,8.20
2024-04-25T18:27:12.152Z,8.00
2024-04-25T18:29:57.720Z,7.90
2024-04-25T18:32:45.771Z,7.90
2024-04-25T18:35:31.469Z,7.80
2024-04-25T18:38:17.127Z,7.80
2024-04-25T18:41:02.822Z,7.80
2024-04-25T18:43:48.605Z,7.80
2024-04-25T18:46:34.183Z,7.80
2024-04-25T18:49:20.171Z,7.80
2024-04-25T18:52:06.004Z,7.80
2024-04-25T18:54:51.515Z,7.80
2024-04-25T18:57:37.533Z,7.80
2024-04-25T19:00:23.162Z,7.80
2024-04-25T19:03:08.894Z,7.80
2024-04-25T19:05:55.051Z,7.80
2024-04-25T19:08:40.983Z,7.80
2024-04-25T19:11:27.794Z,7.80
2024-04-25T19:14:14.246Z,7.80
2024-04-25T19:16:59.854Z,7.80
2024-04-25T19:19:48.952Z,7.80
2024-04-25T19:22:35.309Z,7.90
2024-04-25T19:25:21.428Z,7.90
2024-04-25T19:28:07.038Z,7.90
2024-04-25T19:30:52.601Z,7.90
2024-04-25T19:33:38.253Z,8.00
2024-04-25T19:36:24.066Z,8.00
2024-04-25T19:39:09.969Z,8.00
2024-04-25T19:41:58.219Z,8.00
2024-04-25T19:44:45.747Z,8.00
2024-04-25T19:47:35.838Z,8.00
2024-04-25T19:50:23.876Z,8.10
2024-04-25T19:53:09.844Z,8.10
2024-04-25T19:55:55.417Z,8.10
2024-04-25T19:58:42.706Z,8.10
2024-04-25T20:01:28.099Z,8.10
2024-04-25T20:04:13.764Z,8.10
2024-04-25T20:06:59.429Z,8.20
2024-04-25T20:09:44.957Z,8.10
2024-04-25T20:12:34.962Z,8.10
2024-04-25T20:15:20.497Z,8.20
2024-04-25T20:18:24.984Z,8.20
2024-04-25T20:21:10.385Z,8.10
2024-04-25T20:23:56.237Z,8.20
2024-04-25T20:26:42.934Z,8.20
2024-04-25T20:29:30.339Z,8.20
2024-04-25T20:32:15.925Z,8.20
2024-04-25T20:35:01.347Z,8.20
2024-04-25T20:37:47.105Z,8.20
2024-04-25T20:40:32.560Z,8.20
2024-04-25T20:43:18.112Z,8.20
2024-04-25T20:46:04.640Z,8.30
2024-04-25T20:48:52.046Z,8.30
2024-04-25T20:51:40.935Z,8.30
2024-04-25T20:54:27.748Z,8.30
2024-04-25T20:57:13.290Z,8.30
2024-04-25T20:59:59.006Z,8.30
2024-04-25T21:02:44.715Z,8.30
2024-04-25T21:05:30.403Z,8.30
2024-04-25T21:08:16.379Z,8.30
2024-04-25T21:11:02.196Z,8.30
2024-04-25T21:13:50.531Z,8.30
2024-04-25T21:16:40.551Z,8.30
2024-04-25T21:19:26.680Z,8.30
2024-04-25T21:22:12.195Z,8.40
2024-04-25T21:24:57.767Z,8.40
2024-04-25T21:27:43.280Z,8.40
2024-04-25T21:30:28.658Z,8.40
2024-04-25T21:33:14.593Z,8.40
2024-04-25T21:36:00.569Z,8.40
2024-04-25T21:38:46.192Z,8.30
2024-04-25T21:41:38.660Z,8.40
2024-04-25T21:44:24.476Z,8.40
2024-04-25T21:47:10.236Z,8.30
2024-04-25T21:49:55.760Z,8.30
2024-04-25T21:52:41.312Z,8.30
2024-04-25T21:55:26.863Z,8.30
2024-04-25T21:58:12.851Z,8.30
2024-04-25T22:00:58.337Z,8.40
2024-04-25T22:03:45.027Z,8.40
2024-04-25T22:06:31.049Z,8.40
2024-04-25T22:09:17.008Z,8.40
2024-04-25T22:12:02.712Z,8.40
2024-04-25T22:14:48.534Z,8.40
2024-04-25T22:17:34.288Z,8.30
2024-04-25T22:20:20.200Z,8.40
2024-04-25T22:23:05.948Z,8.40
2024-04-25T22:25:52.054Z,8.40
2024-04-25T22:28:37.756Z,8.40
2024-04-25T22:31:24.803Z,8.40
2024-04-25T22:34:10.438Z,8.40
2024-04-25T22:36:56.500Z,8.40
2024-04-25T22:39:41.994Z,8.40
2024-04-25T22:42:27.892Z,8.50
2024-04-25T22:45:21.472Z,8.50
2024-04-25T22:48:10.786Z,8.50
2024-04-25T22:50:56.251Z,8.50
2024-04-25T22:53:41.845Z,8.50
2024-04-25T22:56:27.334Z,8.50
2024-04-25T22:59:12.935Z,8.50
2024-04-25T23:01:58.691Z,8.50
2024-04-25T23:04:44.177Z,8.60
2024-04-25T23:07:30.093Z,8.50
2024-04-25T23:10:15.425Z,8.50
2024-04-25T23:13:00.826Z,8.50
2024-04-25T23:15:46.608Z,8.50
2024-04-25T23:18:32.009Z,8.40
2024-04-25T23:21:17.538Z,8.40
2024-04-25T23:24:05.172Z,8.40
2024-04-25T23:26:52.571Z,8.40
2024-04-25T23:29:38.226Z,8.40
2024-04-25T23:32:24.311Z,8.30
2024-04-25T23:35:09.803Z,8.30
2024-04-25T23:37:55.447Z,8.30
2024-04-25T23:40:41.178Z,8.30
2024-04-25T23:43:27.722Z,8.30
2024-04-25T23:46:13.650Z,8.30
2024-04-25T23:48:59.567Z,8.20
2024-04-25T23:51:45.507Z,8.20
2024-04-25T23:54:31.178Z,8.20
2024-04-25T23:57:16.764Z,8.10
